Terminal Aerodrome Forecast
Issued by NWS

Home | Current Version | Previous Version | Graphics & Text | Print | Product List | Glossary On
Versions: 1 2 3 4 5 6 7 8 9 10 11 12 13 14 15 16 17 18
000
FTUS43 KFGF 191100
TAFBJI
TAF
KBJI 191139Z 1912/2012 11007KT P6SM -RA OVC005
     FM191500 31013KT P6SM -RA OVC010
     FM192000 31014G22KT P6SM OVC050=

USA.gov is the U.S. government's official web portal to all federal, state and local government web resources and services.